Picton, Canada
Current Conditions -  °F | °C
As of 10:00 PM on Sunday 21 Dec 2014 (Local Time) from CYTR Reporting Station
Broken Clouds Broken Clouds  
Wind Chill: 16°   Ceiling: 3200
Heat Index: 23°   Visibility: 15mi
Dew Point: 21°   Wind: 6mph
Humidity: 93%   Direction: 60°ENE
Pressure: 30.33"   Gusts: NA
Location:  44.01°N, 77.14°W
Report Text: CYTR 220300Z 06005KT 15SM BKN032 M05/M06 A3033 RMK SC7 SLP278
Loading
Personal Weather Stations






























Interactive Weather Map New forecast layout! Learn more

10-Day Weather Forecast

Advertisements
Track Severe Weather on mobile